地図

経路データ

SID SEASON NUMBER BASIN SUBBASIN NAME ISO_TIME NATURE LAT LON WMO_WIND WMO_PRES WMO_AGENCY TRACK_TYPE DIST2LAND LANDFALL IFLAG USA_AGENCY USA_ATCF_ID USA_LAT USA_LON USA_RECORD USA_STATUS USA_WIND USA_PRES USA_SSHS USA_R34_NE USA_R34_SE USA_R34_SW USA_R34_NW USA_R50_NE USA_R50_SE USA_R50_SW USA_R50_NW USA_R64_NE USA_R64_SE USA_R64_SW USA_R64_NW USA_POCI USA_ROCI USA_RMW USA_EYE TOKYO_LAT TOKYO_LON TOKYO_GRADE TOKYO_WIND TOKYO_PRES TOKYO_R50_DIR TOKYO_R50_LONG TOKYO_R50_SHORT TOKYO_R30_DIR TOKYO_R30_LONG TOKYO_R30_SHORT TOKYO_LAND CMA_LAT CMA_LON CMA_CAT CMA_WIND CMA_PRES HKO_LAT HKO_LON HKO_CAT HKO_WIND HKO_PRES NEWDELHI_LAT NEWDELHI_LON NEWDELHI_GRADE NEWDELHI_WIND NEWDELHI_PRES NEWDELHI_CI NEWDELHI_DP NEWDELHI_POCI REUNION_LAT REUNION_LON REUNION_TYPE REUNION_WIND REUNION_PRES REUNION_TNUM REUNION_CI REUNION_RMW REUNION_R34_NE REUNION_R34_SE REUNION_R34_SW REUNION_R34_NW REUNION_R50_NE REUNION_R50_SE REUNION_R50_SW REUNION_R50_NW REUNION_R64_NE REUNION_R64_SE REUNION_R64_SW REUNION_R64_NW BOM_LAT BOM_LON BOM_TYPE BOM_WIND BOM_PRES BOM_TNUM BOM_CI BOM_RMW BOM_R34_NE BOM_R34_SE BOM_R34_SW BOM_R34_NW BOM_R50_NE BOM_R50_SE BOM_R50_SW BOM_R50_NW BOM_R64_NE BOM_R64_SE BOM_R64_SW BOM_R64_NW BOM_ROCI BOM_POCI BOM_EYE BOM_POS_METHOD BOM_PRES_METHOD NADI_LAT NADI_LON NADI_CAT NADI_WIND NADI_PRES WELLINGTON_LAT WELLINGTON_LON WELLINGTON_WIND WELLINGTON_PRES DS824_LAT DS824_LON DS824_STAGE DS824_WIND DS824_PRES TD9636_LAT TD9636_LON TD9636_STAGE TD9636_WIND TD9636_PRES TD9635_LAT TD9635_LON TD9635_WIND TD9635_PRES TD9635_ROCI NEUMANN_LAT NEUMANN_LON NEUMANN_CLASS NEUMANN_WIND NEUMANN_PRES MLC_LAT MLC_LON MLC_CLASS MLC_WIND MLC_PRES USA_GUST BOM_GUST BOM_GUST_PER REUNION_GUST REUNION_GUST_PER USA_SEAHGT USA_SEARAD_NE USA_SEARAD_SE USA_SEARAD_SW USA_SEARAD_NW STORM_SPEED STORM_DIR
1931320N12146 1931 57 WP MM NOT_NAMED 1931-11-16 10:00:00 NR 12.0000 145.500 main 1584 1584 __________O___ -1 12.0000 145.500 7 7 284
1931320N12146 1931 57 WP MM NOT_NAMED 1931-11-16 12:00:00 NR 12.0535 145.285 main 1597 1597 __________P___ -1 12.0535 145.285 7 6 284
1931320N12146 1931 57 WP MM NOT_NAMED 1931-11-16 15:00:00 NR 12.1323 144.968 main 1600 1600 __________P___ -1 12.1323 144.968 7 6 284
1931320N12146 1931 57 WP MM NOT_NAMED 1931-11-16 18:00:00 NR 12.2077 144.666 main 1615 1617 __________P___ -1 12.2077 144.666 7 6 284
1931320N12146 1931 57 WP MM NOT_NAMED 1931-11-16 21:00:00 NR 12.2780 144.386 main 1631 1631 __________P___ -1 12.2780 144.386 7 6 284
1931320N12146 1931 57 WP MM NOT_NAMED 1931-11-16 22:00:00 NR 12.3000 144.300 main 1633 1633 __________O___ -1 12.3000 144.300 7 5 285
1931320N12146 1931 57 WP MM NOT_NAMED 1931-11-17 00:00:00 NR 12.3415 144.138 main 1636 1636 __________P___ -1 12.3415 144.138 7 5 285
1931320N12146 1931 57 WP MM NOT_NAMED 1931-11-17 03:00:00 NR 12.3976 143.914 main 1651 1651 __________P___ -1 12.3976 143.914 7 4 284
1931320N12146 1931 57 WP MM NOT_NAMED 1931-11-17 06:00:00 NR 12.4464 143.699 main 1655 1655 __________P___ -1 12.4464 143.699 7 4 282
1931320N12146 1931 57 WP MM NOT_NAMED 1931-11-17 09:00:00 NR 12.4878 143.478 main 1671 1671 __________P___ -1 12.4878 143.478 7 4 280
1931320N12146 1931 57 WP MM NOT_NAMED 1931-11-17 10:00:00 NR 12.5000 143.400 main 1673 1673 __________O___ -1 12.5000 143.400 7 5 278
1931320N12146 1931 57 WP MM NOT_NAMED 1931-11-17 12:00:00 NR 12.5224 143.225 main 1673 1666 __________P___ -1 12.5224 143.225 7 5 276
1931320N12146 1931 57 WP MM NOT_NAMED 1931-11-17 15:00:00 NR 12.5497 142.951 main 1666 1666 __________P___ -1 12.5497 142.951 7 5 275
1931320N12146 1931 57 WP MM NOT_NAMED 1931-11-17 18:00:00 NR 12.5721 142.670 main 1666 1657 __________P___ -1 12.5721 142.670 7 5 275
1931320N12146 1931 57 WP MM NOT_NAMED 1931-11-17 21:00:00 NR 12.5929 142.391 main 1657 1654 __________P___ -1 12.5929 142.391 7 5 274
1931320N12146 1931 57 WP MM NOT_NAMED 1931-11-17 22:00:00 NR 12.6000 142.300 main 1654 1648 __________O___ -1 12.6000 142.300 7 5 275
1931320N12146 1931 57 WP MM NOT_NAMED 1931-11-18 00:00:00 NR 12.6165 142.135 main 1648 1641 __________P___ -1 12.6165 142.135 7 5 276
1931320N12146 1931 57 WP MM NOT_NAMED 1931-11-18 03:00:00 NR 12.6414 141.895 main 1641 1636 __________P___ -1 12.6414 141.895 7 5 276
1931320N12146 1931 57 WP MM NOT_NAMED 1931-11-18 06:00:00 NR 12.6664 141.652 main 1642 1629 __________P___ -1 12.6664 141.652 7 5 276
1931320N12146 1931 57 WP MM NOT_NAMED 1931-11-18 09:00:00 NR 12.6916 141.392 main 1629 1625 __________P___ -1 12.6916 141.392 7 5 276
1931320N12146 1931 57 WP MM NOT_NAMED 1931-11-18 10:00:00 NR 12.7000 141.300 main 1625 1617 __________O___ -1 12.7000 141.300 7 6 274
1931320N12146 1931 57 WP MM NOT_NAMED 1931-11-18 12:00:00 NR 12.7141 141.095 main 1617 1606 __________P___ -1 12.7141 141.095 7 6 274
1931320N12146 1931 57 WP MM NOT_NAMED 1931-11-18 15:00:00 NR 12.7351 140.769 main 1606 1599 __________P___ -1 12.7351 140.769 7 6 274
1931320N12146 1931 57 WP MM NOT_NAMED 1931-11-18 18:00:00 NR 12.7588 140.434 main 1602 1569 __________P___ -1 12.7588 140.434 7 7 275
1931320N12146 1931 57 WP MM NOT_NAMED 1931-11-18 21:00:00 NR 12.7883 140.105 main 1569 1558 __________P___ -1 12.7883 140.105 7 6 276
1931320N12146 1931 57 WP MM NOT_NAMED 1931-11-18 22:00:00 NR 12.8000 140.000 main 1558 1537 __________O___ -1 12.8000 140.000 7 6 277
1931320N12146 1931 57 WP MM NOT_NAMED 1931-11-19 00:00:00 NR 12.8249 139.803 main 1537 1506 __________P___ -1 12.8249 139.803 7 6 278
1931320N12146 1931 57 WP MM NOT_NAMED 1931-11-19 03:00:00 NR 12.8686 139.519 main 1506 1473 __________P___ -1 12.8686 139.519 7 5 280
1931320N12146 1931 57 WP MM NOT_NAMED 1931-11-19 06:00:00 NR 12.9199 139.248 main 1473 1453 __________P___ -1 12.9199 139.248 7 5 282
1931320N12146 1931 57 WP MM NOT_NAMED 1931-11-19 09:00:00 NR 12.9787 138.986 main 1453 1443 __________P___ -1 12.9787 138.986 7 5 283
1931320N12146 1931 57 WP MM NOT_NAMED 1931-11-19 10:00:00 NR 13.0000 138.900 main 1443 1421 __________O___ -1 13.0000 138.900 7 5 286
1931320N12146 1931 57 WP MM NOT_NAMED 1931-11-19 12:00:00 NR 13.0494 138.738 main 1421 1401 __________P___ -1 13.0494 138.738 7 5 289
1931320N12146 1931 57 WP MM NOT_NAMED 1931-11-19 15:00:00 NR 13.1299 138.502 main 1401 1381 __________P___ -1 13.1299 138.502 7 5 289
1931320N12146 1931 57 WP MM NOT_NAMED 1931-11-19 18:00:00 NR 13.2101 138.260 main 1381 1351 __________P___ -1 13.2101 138.260 7 5 287
1931320N12146 1931 57 WP MM NOT_NAMED 1931-11-19 21:00:00 NR 13.2804 137.996 main 1351 1340 __________P___ -1 13.2804 137.996 7 5 284
1931320N12146 1931 57 WP MM NOT_NAMED 1931-11-19 22:00:00 NR 13.3000 137.900 main 1340 1319 __________O___ -1 13.3000 137.900 7 6 278
1931320N12146 1931 57 WP MM NOT_NAMED 1931-11-20 00:00:00 NR 13.3228 137.695 main 1319 1287 __________P___ -1 13.3228 137.695 7 6 275
1931320N12146 1931 57 WP MM NOT_NAMED 1931-11-20 03:00:00 NR 13.3443 137.361 main 1287 1247 __________P___ -1 13.3443 137.361 7 7 273
1931320N12146 1931 57 WP MM NOT_NAMED 1931-11-20 06:00:00 NR 13.3616 137.004 main 1247 1204 __________P___ -1 13.3616 137.004 7 7 273
1931320N12146 1931 57 WP MM NOT_NAMED 1931-11-20 09:00:00 NR 13.3874 136.628 main 1204 1194 __________P___ -1 13.3874 136.628 7 7 274
1931320N12146 1931 57 WP MM NOT_NAMED 1931-11-20 10:00:00 NR 13.4000 136.500 main 1194 1162 __________O___ -1 13.4000 136.500 7 7 275
1931320N12146 1931 57 WP MM NOT_NAMED 1931-11-20 12:00:00 NR 13.4201 136.250 main 1162 1133 __________P___ -1 13.4201 136.250 7 7 276
1931320N12146 1931 57 WP MM NOT_NAMED 1931-11-20 15:00:00 NR 13.4625 135.862 main 1133 1091 __________P___ -1 13.4625 135.862 7 8 278
1931320N12146 1931 57 WP MM NOT_NAMED 1931-11-20 18:00:00 NR 13.5336 135.459 main 1091 1041 __________P___ -1 13.5336 135.459 7 8 283
1931320N12146 1931 57 WP MM NOT_NAMED 1931-11-20 21:00:00 NR 13.6490 135.042 main 1041 1032 __________P___ -1 13.6490 135.042 7 9 287
1931320N12146 1931 57 WP MM NOT_NAMED 1931-11-20 22:00:00 NR 13.7000 134.900 main 1032 1002 __________O___ -1 13.7000 134.900 7 9 292
1931320N12146 1931 57 WP MM NOT_NAMED 1931-11-21 00:00:00 NR 13.8188 134.606 main 1002 963 __________P___ -1 13.8188 134.606 7 10 295
1931320N12146 1931 57 WP MM NOT_NAMED 1931-11-21 03:00:00 NR 14.0411 134.153 main 963 918 __________P___ -1 14.0411 134.153 7 10 299
1931320N12146 1931 57 WP MM NOT_NAMED 1931-11-21 06:00:00 NR 14.3049 133.695 main 918 875 __________P___ -1 14.3049 133.695 7 10 302
1931320N12146 1931 57 WP MM NOT_NAMED 1931-11-21 09:00:00 NR 14.5980 133.246 main 875 868 __________P___ -1 14.5980 133.246 7 11 304
1931320N12146 1931 57 WP MM NOT_NAMED 1931-11-21 10:00:00 NR 14.7000 133.100 main 868 845 __________O___ -1 14.7000 133.100 7 10 305
1931320N12146 1931 57 WP MM NOT_NAMED 1931-11-21 12:00:00 NR 14.8915 132.814 main 845 817 __________P___ -1 14.8915 132.814 7 10 306
1931320N12146 1931 57 WP MM NOT_NAMED 1931-11-21 15:00:00 NR 15.1977 132.397 main 817 793 __________P___ -1 15.1977 132.397 7 10 309
1931320N12146 1931 57 WP MM NOT_NAMED 1931-11-21 18:00:00 NR 15.5265 131.998 main 793 777 __________P___ -1 15.5265 131.998 7 10 312
1931320N12146 1931 57 WP MM NOT_NAMED 1931-11-21 21:00:00 NR 15.8779 131.621 main 777 774 __________P___ -1 15.8779 131.621 7 10 315
1931320N12146 1931 57 WP MM NOT_NAMED 1931-11-21 22:00:00 NR 16.0000 131.500 main 774 769 __________O___ -1 16.0000 131.500 7 10 316
1931320N12146 1931 57 WP MM NOT_NAMED 1931-11-22 00:00:00 NR 16.2363 131.255 main 769 760 __________P___ -1 16.2363 131.255 7 10 317
1931320N12146 1931 57 WP MM NOT_NAMED 1931-11-22 03:00:00 NR 16.6095 130.908 main 760 744 __________P___ -1 16.6095 130.908 7 10 320
1931320N12146 1931 57 WP MM NOT_NAMED 1931-11-22 06:00:00 NR 17.0108 130.585 main 749 741 __________P___ -1 17.0108 130.585 7 10 325
1931320N12146 1931 57 WP MM NOT_NAMED 1931-11-22 09:00:00 NR 17.4462 130.291 main 743 740 __________P___ -1 17.4462 130.291 7 10 328
1931320N12146 1931 57 WP MM NOT_NAMED 1931-11-22 10:00:00 NR 17.6000 130.200 main 746 743 __________O___ -1 17.6000 130.200 7 11 331
1931320N12146 1931 57 WP MM NOT_NAMED 1931-11-22 12:00:00 NR 17.9108 130.022 main 747 747 __________P___ -1 17.9108 130.022 7 11 334
1931320N12146 1931 57 WP MM NOT_NAMED 1931-11-22 15:00:00 NR 18.4085 129.779 main 765 765 __________P___ -1 18.4085 129.779 7 11 337
1931320N12146 1931 57 WP MM NOT_NAMED 1931-11-22 18:00:00 NR 18.9411 129.562 main 771 753 __________P___ -1 18.9411 129.562 7 12 340
1931320N12146 1931 57 WP MM NOT_NAMED 1931-11-22 21:00:00 NR 19.5054 129.363 main 756 748 __________P___ -1 19.5054 129.363 7 12 342
1931320N12146 1931 57 WP MM NOT_NAMED 1931-11-22 22:00:00 NR 19.7000 129.300 main 749 738 __________O___ -1 19.7000 129.300 7 12 341
1931320N12146 1931 57 WP MM NOT_NAMED 1931-11-23 00:00:00 NR 20.0834 129.144 main 738 734 __________P___ -1 20.0834 129.144 7 13 340
1931320N12146 1931 57 WP MM NOT_NAMED 1931-11-23 03:00:00 NR 20.6835 128.921 main 737 735 __________P___ -1 20.6835 128.921 7 13 343
1931320N12146 1931 57 WP MM NOT_NAMED 1931-11-23 06:00:00 NR 21.3135 128.737 main 743 738 __________P___ -1 21.3135 128.737 7 13 348
1931320N12146 1931 57 WP MM NOT_NAMED 1931-11-23 09:00:00 NR 21.9734 128.620 main 738 730 __________P___ -1 21.9734 128.620 7 14 352
1931320N12146 1931 57 WP MM NOT_NAMED 1931-11-23 10:00:00 NR 22.2000 128.600 main 730 711 __________O___ -1 22.2000 128.600 4 14 358
1931320N12146 1931 57 WP MM NOT_NAMED 1931-11-23 12:00:00 NR 22.6629 128.594 main 711 693 __________P___ -1 22.6629 128.594 4 14 3
1931320N12146 1931 57 WP MM NOT_NAMED 1931-11-23 15:00:00 NR 23.3776 128.656 main 701 688 __________P___ -1 23.3776 128.656 4 15 7
1931320N12146 1931 57 WP MM NOT_NAMED 1931-11-23 18:00:00 NR 24.1098 128.781 main 694 689 __________P___ -1 24.1098 128.781 4 15 10
1931320N12146 1931 57 WP MM NOT_NAMED 1931-11-23 21:00:00 NR 24.8518 128.942 main 695 679 __________P___ -1 24.8518 128.942 4 15 11
1931320N12146 1931 57 WP MM NOT_NAMED 1931-11-23 22:00:00 NR 25.1000 129.000 main 679 __________O___ -1 25.1000 129.000 4 15 12

デジタル台風データ・検索

IBTrACS Databaseについて

本データベースは、米国NOAAが公開する1842年以降の世界の熱帯低気圧のベストトラックデータアーカイブInternational Best Track Archive for Climate Stewardship (IBTrACS)を、ウェブで閲覧しやすい形式に変換したものです。

最終更新日:2021-10-21